createdAt,value
2018-06-07T00:00:00.066Z,18.17
2018-06-07T00:02:33.423Z,18.15
2018-06-07T00:05:06.819Z,18.02
2018-06-07T00:07:40.184Z,17.94
2018-06-07T00:10:13.558Z,17.92
2018-06-07T00:12:46.977Z,17.86
2018-06-07T00:15:20.392Z,17.83
2018-06-07T00:17:53.786Z,17.84
2018-06-07T00:20:27.171Z,17.85
2018-06-07T00:23:00.553Z,17.85
2018-06-07T00:25:33.931Z,17.85
2018-06-07T00:28:07.292Z,17.82
2018-06-07T00:30:41.443Z,17.81
2018-06-07T00:33:14.795Z,17.78
2018-06-07T00:35:49.171Z,17.70
2018-06-07T00:38:22.535Z,17.58
2018-06-07T00:40:55.918Z,17.54
2018-06-07T00:43:29.287Z,17.47
2018-06-07T00:46:02.667Z,17.43
2018-06-07T00:48:36.029Z,17.32
2018-06-07T00:51:09.443Z,17.22
2018-06-07T00:53:42.817Z,17.13
2018-06-07T00:57:23.700Z,17.07
2018-06-07T00:59:57.087Z,16.99
2018-06-07T01:02:30.451Z,16.93
2018-06-07T01:05:03.910Z,16.91
2018-06-07T01:07:37.298Z,16.78
2018-06-07T01:10:10.711Z,16.76
2018-06-07T01:12:44.067Z,16.71
2018-06-07T01:15:17.481Z,16.67
2018-06-07T01:17:50.840Z,16.63
2018-06-07T01:20:24.273Z,16.56
2018-06-07T01:22:57.634Z,16.55
2018-06-07T01:25:31.027Z,16.54
2018-06-07T01:28:04.392Z,16.51
2018-06-07T01:30:43.061Z,16.48
2018-06-07T01:33:32.912Z,16.47
2018-06-07T01:36:06.342Z,16.46
2018-06-07T01:39:21.205Z,16.46
2018-06-07T01:41:54.627Z,16.38
2018-06-07T01:44:28.016Z,16.26
2018-06-07T01:47:01.384Z,16.12
2018-06-07T01:49:34.756Z,16.02
2018-06-07T01:52:08.122Z,15.95
2018-06-07T01:54:41.992Z,15.89
2018-06-07T01:57:15.355Z,15.87
2018-06-07T01:59:48.735Z,15.83
2018-06-07T02:02:22.090Z,15.85
2018-06-07T02:04:55.536Z,15.83
2018-06-07T02:07:28.896Z,15.86
2018-06-07T02:10:02.283Z,15.88
2018-06-07T02:12:35.643Z,15.90
2018-06-07T02:15:09.081Z,15.89
2018-06-07T02:17:42.439Z,15.82
2018-06-07T02:20:15.854Z,15.78
2018-06-07T02:22:49.200Z,15.75
2018-06-07T02:25:22.571Z,15.64
2018-06-07T02:27:55.916Z,15.57
2018-06-07T02:30:29.297Z,15.48
2018-06-07T02:33:02.639Z,15.46
2018-06-07T02:35:36.008Z,15.43
2018-06-07T02:38:09.398Z,15.46
2018-06-07T02:40:42.811Z,15.45
2018-06-07T02:43:16.182Z,15.47
2018-06-07T02:45:49.576Z,15.52
2018-06-07T02:48:22.946Z,15.54
2018-06-07T02:50:56.343Z,15.52
2018-06-07T02:53:29.713Z,15.48
2018-06-07T02:56:03.083Z,15.50
2018-06-07T02:58:36.444Z,15.50
2018-06-07T03:01:09.860Z,15.45
2018-06-07T03:03:43.216Z,15.40
2018-06-07T03:06:16.594Z,15.33
2018-06-07T03:08:49.956Z,15.32
2018-06-07T03:11:23.351Z,15.28
2018-06-07T03:13:56.747Z,15.25
2018-06-07T03:16:30.109Z,15.17
2018-06-07T03:19:03.451Z,15.15
2018-06-07T03:21:36.807Z,15.20
2018-06-07T03:24:10.528Z,15.25
2018-06-07T03:26:43.904Z,15.30
2018-06-07T03:29:17.258Z,15.23
2018-06-07T03:31:50.642Z,15.22
2018-06-07T03:34:24.003Z,15.23
2018-06-07T03:36:57.382Z,15.27
2018-06-07T03:39:30.735Z,15.26
2018-06-07T03:42:04.148Z,15.14
2018-06-07T03:44:37.501Z,15.10
2018-06-07T03:47:10.883Z,15.10
2018-06-07T03:49:44.231Z,15.13
2018-06-07T03:52:17.616Z,15.17
2018-06-07T03:54:50.964Z,15.17
2018-06-07T03:57:24.424Z,15.19
2018-06-07T03:59:57.788Z,15.25
2018-06-07T04:02:31.167Z,15.32
2018-06-07T04:05:04.527Z,15.42
2018-06-07T04:07:37.892Z,15.57
2018-06-07T04:10:11.249Z,15.68
2018-06-07T04:12:44.643Z,15.80
2018-06-07T04:15:18.044Z,15.90
2018-06-07T04:17:51.408Z,16.14
2018-06-07T04:20:24.765Z,16.36
2018-06-07T04:22:58.128Z,16.46
2018-06-07T04:25:31.469Z,16.60
2018-06-07T04:28:04.920Z,16.68
2018-06-07T04:30:38.268Z,16.83
2018-06-07T04:33:11.671Z,16.91
2018-06-07T04:35:45.013Z,17.12
2018-06-07T04:38:18.383Z,17.23
2018-06-07T04:40:51.747Z,17.31
2018-06-07T04:43:25.159Z,17.40
2018-06-07T04:45:58.531Z,17.56
2018-06-07T04:48:31.899Z,17.75
2018-06-07T04:51:05.242Z,17.84
2018-06-07T04:53:38.605Z,17.98
2018-06-07T04:56:11.963Z,18.19
2018-06-07T04:58:45.328Z,18.31
2018-06-07T05:01:18.668Z,18.28
2018-06-07T05:03:52.126Z,18.35
2018-06-07T05:06:25.505Z,18.47
2018-06-07T05:08:58.904Z,18.42
2018-06-07T05:16:24.060Z,18.67
2018-06-07T05:18:57.439Z,18.69
2018-06-07T05:21:30.787Z,18.90
2018-06-07T05:24:04.163Z,18.86
2018-06-07T05:26:37.527Z,18.97
2018-06-07T05:29:10.964Z,19.02
2018-06-07T05:31:44.323Z,19.18
2018-06-07T05:34:17.695Z,19.18
2018-06-07T05:36:51.051Z,19.36
2018-06-07T05:39:24.451Z,19.54
2018-06-07T05:41:57.822Z,19.66
2018-06-07T05:44:31.286Z,19.47
2018-06-07T05:47:04.626Z,19.52
2018-06-07T05:49:37.996Z,19.51
2018-06-07T05:52:12.423Z,19.67
2018-06-07T05:54:45.811Z,19.68
2018-06-07T05:57:19.324Z,19.75
2018-06-07T05:59:52.684Z,19.76
2018-06-07T06:02:26.079Z,19.87
2018-06-07T06:04:59.435Z,19.68
2018-06-07T06:07:32.795Z,19.86
2018-06-07T06:10:06.158Z,19.78
2018-06-07T06:12:39.669Z,20.09
2018-06-07T06:15:13.043Z,20.23
2018-06-07T06:17:46.418Z,20.46
2018-06-07T06:20:19.772Z,20.64
2018-06-07T06:22:53.180Z,20.62
2018-06-07T06:25:26.550Z,20.76
2018-06-07T06:27:59.929Z,20.98
2018-06-07T06:30:33.391Z,21.20
2018-06-07T06:33:06.760Z,21.35
2018-06-07T06:35:40.125Z,21.47
2018-06-07T06:38:45.409Z,21.61
2018-06-07T06:41:18.796Z,21.62
2018-06-07T06:43:52.176Z,21.70
2018-06-07T06:46:25.540Z,21.80
2018-06-07T06:48:58.923Z,21.88
2018-06-07T06:51:32.263Z,21.84
2018-06-07T06:54:05.643Z,21.91
2018-06-07T06:56:38.996Z,22.07
2018-06-07T06:59:12.378Z,22.18
2018-06-07T07:01:45.728Z,22.24
2018-06-07T07:04:19.145Z,22.39
2018-06-07T07:06:52.518Z,22.46
2018-06-07T07:09:25.887Z,22.48
2018-06-07T07:11:59.236Z,22.57
2018-06-07T07:14:32.640Z,22.65
2018-06-07T07:17:06.029Z,22.68
2018-06-07T07:19:39.424Z,22.75
2018-06-07T07:22:12.788Z,22.73
2018-06-07T07:24:46.195Z,22.71
2018-06-07T07:27:19.567Z,22.92
2018-06-07T07:29:52.959Z,23.08
2018-06-07T07:32:26.329Z,23.40
2018-06-07T07:34:59.713Z,23.69
2018-06-07T07:37:33.087Z,23.98
2018-06-07T07:40:06.528Z,24.12
2018-06-07T07:42:39.914Z,24.09
2018-06-07T07:45:13.337Z,24.20
2018-06-07T07:47:46.759Z,23.92
2018-06-07T07:50:20.135Z,23.78
2018-06-07T07:52:53.531Z,23.74
2018-06-07T07:55:26.939Z,23.68
2018-06-07T07:58:00.287Z,24.03
2018-06-07T08:00:33.664Z,24.23
2018-06-07T08:03:07.024Z,24.08
2018-06-07T08:05:40.482Z,24.16
2018-06-07T08:08:13.804Z,24.27
2018-06-07T08:10:47.200Z,24.45
2018-06-07T08:13:20.595Z,24.33
2018-06-07T08:15:54.040Z,24.46
2018-06-07T08:18:27.424Z,24.44
2018-06-07T08:21:00.815Z,24.22
2018-06-07T08:23:34.180Z,24.21
2018-06-07T08:26:07.556Z,24.39
2018-06-07T08:28:40.942Z,24.40
2018-06-07T08:31:14.315Z,24.26
2018-06-07T08:33:47.660Z,24.55
2018-06-07T08:36:21.063Z,24.98
2018-06-07T08:38:54.454Z,25.14
2018-06-07T08:41:27.871Z,25.28
2018-06-07T08:44:01.220Z,25.34
2018-06-07T08:46:34.592Z,25.63
2018-06-07T08:49:07.959Z,25.58
2018-06-07T08:51:41.334Z,25.49
2018-06-07T08:54:14.732Z,25.70
2018-06-07T08:56:48.117Z,25.64
2018-06-07T08:59:21.469Z,25.65
2018-06-07T09:01:54.876Z,25.89
2018-06-07T09:04:28.231Z,26.12
2018-06-07T09:07:01.621Z,26.30
2018-06-07T09:09:34.997Z,26.29
2018-06-07T09:12:08.480Z,26.42
2018-06-07T09:14:41.862Z,26.11
2018-06-07T09:17:15.235Z,26.08
2018-06-07T09:19:48.575Z,26.22
2018-06-07T09:22:21.940Z,26.11
2018-06-07T09:24:55.291Z,25.97
2018-06-07T09:27:28.662Z,25.87
2018-06-07T09:30:02.014Z,25.77
2018-06-07T09:32:35.413Z,26.03
2018-06-07T09:35:08.782Z,25.98
2018-06-07T09:37:42.152Z,26.11
2018-06-07T09:40:15.492Z,26.17
2018-06-07T09:42:48.926Z,26.10
2018-06-07T09:45:22.275Z,26.09
2018-06-07T09:47:55.671Z,26.34
2018-06-07T09:50:29.037Z,26.34
2018-06-07T09:53:02.567Z,26.59
2018-06-07T09:55:35.823Z,26.65
2018-06-07T09:58:09.272Z,26.76
2018-06-07T10:00:42.596Z,26.80
2018-06-07T10:03:15.985Z,27.03
2018-06-07T10:05:49.349Z,26.87
2018-06-07T10:08:22.796Z,26.67
2018-06-07T10:10:56.205Z,26.51
2018-06-07T10:13:29.596Z,26.61
2018-06-07T10:16:03.000Z,26.77
2018-06-07T10:18:36.356Z,26.98
2018-06-07T10:21:09.766Z,27.24
2018-06-07T10:23:43.186Z,27.51
2018-06-07T10:26:16.573Z,27.41
2018-06-07T10:28:49.956Z,27.33
2018-06-07T10:31:23.351Z,27.42
2018-06-07T10:33:56.746Z,27.78
2018-06-07T10:36:30.126Z,27.89
2018-06-07T10:39:03.773Z,27.81
2018-06-07T10:41:37.181Z,27.84
2018-06-07T10:44:10.583Z,28.00
2018-06-07T10:46:43.973Z,27.94
2018-06-07T10:49:17.339Z,27.72
2018-06-07T10:51:50.759Z,27.80
2018-06-07T10:54:24.149Z,27.70
2018-06-07T10:56:57.557Z,27.71
2018-06-07T10:59:30.936Z,27.60
2018-06-07T11:02:04.332Z,27.73
2018-06-07T11:04:37.697Z,27.77
2018-06-07T11:07:11.101Z,27.68
2018-06-07T11:09:44.472Z,27.83
2018-06-07T11:12:17.867Z,27.82
2018-06-07T11:14:51.253Z,28.13
2018-06-07T11:17:24.677Z,28.47
2018-06-07T11:19:58.083Z,28.96
2018-06-07T11:22:31.483Z,29.15
2018-06-07T11:25:04.965Z,28.82
2018-06-07T11:27:38.342Z,28.81
2018-06-07T11:30:11.697Z,28.82
2018-06-07T11:32:45.081Z,28.91
2018-06-07T11:35:18.431Z,29.14
2018-06-07T11:37:51.810Z,29.20
2018-06-07T11:40:25.220Z,29.01
2018-06-07T11:42:58.581Z,29.26
2018-06-07T11:45:31.964Z,29.18
2018-06-07T11:48:05.368Z,29.41
2018-06-07T11:50:38.735Z,29.38
2018-06-07T11:53:12.234Z,29.35
2018-06-07T11:55:45.612Z,29.36
2018-06-07T11:58:18.980Z,29.44
2018-06-07T12:00:52.373Z,29.34
2018-06-07T12:03:25.829Z,29.26
2018-06-07T12:05:59.249Z,29.35
2018-06-07T12:08:32.629Z,29.20
2018-06-07T12:11:05.992Z,29.30
2018-06-07T12:13:39.382Z,29.24
2018-06-07T12:16:12.739Z,29.25
2018-06-07T12:18:46.129Z,29.31
2018-06-07T12:21:19.496Z,29.37
2018-06-07T12:23:52.904Z,29.58
2018-06-07T12:26:26.263Z,29.65
2018-06-07T12:28:59.647Z,29.59
2018-06-07T12:31:33.019Z,29.30
2018-06-07T12:34:06.406Z,29.37
2018-06-07T12:36:39.755Z,29.49
2018-06-07T12:39:13.184Z,29.65
2018-06-07T12:41:46.529Z,29.68
2018-06-07T12:44:19.943Z,29.55
2018-06-07T12:46:53.338Z,29.61
2018-06-07T12:49:26.839Z,29.52
2018-06-07T12:52:00.203Z,29.52
2018-06-07T12:54:33.586Z,29.40
2018-06-07T12:57:06.966Z,29.25
2018-06-07T12:59:40.360Z,29.32
2018-06-07T13:02:13.743Z,29.40
2018-06-07T13:04:47.149Z,29.60
2018-06-07T13:07:20.523Z,29.47
2018-06-07T13:09:53.908Z,29.71
2018-06-07T13:12:27.288Z,29.88
2018-06-07T13:15:00.705Z,29.92
2018-06-07T13:17:34.076Z,29.88
2018-06-07T13:20:07.483Z,29.96
2018-06-07T13:22:40.844Z,29.79
2018-06-07T13:25:14.238Z,29.70
2018-06-07T13:27:47.600Z,29.82
2018-06-07T13:30:20.996Z,29.90
2018-06-07T13:32:54.359Z,30.02
2018-06-07T13:35:27.749Z,30.08
2018-06-07T13:38:01.140Z,30.02
2018-06-07T13:40:34.535Z,30.21
2018-06-07T13:43:07.933Z,30.37
2018-06-07T13:45:41.308Z,30.51
2018-06-07T13:48:14.685Z,30.52
2018-06-07T13:50:48.056Z,30.61
2018-06-07T13:53:21.443Z,30.54
2018-06-07T13:55:56.062Z,30.56
2018-06-07T13:58:29.464Z,30.55
2018-06-07T14:01:02.824Z,30.60
2018-06-07T14:03:36.204Z,30.58
2018-06-07T14:06:09.565Z,30.47
2018-06-07T14:08:43.027Z,30.39
2018-06-07T14:11:16.669Z,30.36
2018-06-07T14:13:50.113Z,30.45
2018-06-07T14:16:23.459Z,30.40
2018-06-07T14:18:56.891Z,30.31
2018-06-07T14:21:30.239Z,30.28
2018-06-07T14:24:03.608Z,30.33
2018-06-07T14:26:36.975Z,30.43
2018-06-07T14:29:10.372Z,30.34
2018-06-07T14:31:43.746Z,30.45
2018-06-07T14:34:17.128Z,30.40
2018-06-07T14:36:50.611Z,30.45
2018-06-07T14:39:24.006Z,30.41
2018-06-07T14:41:57.394Z,30.55
2018-06-07T14:44:30.772Z,30.61
2018-06-07T14:47:04.123Z,30.46
2018-06-07T14:49:37.489Z,30.41
2018-06-07T14:52:10.935Z,30.37
2018-06-07T14:54:44.337Z,30.53
2018-06-07T14:57:17.721Z,30.65
2018-06-07T14:59:51.116Z,30.99
2018-06-07T15:02:25.913Z,31.15
2018-06-07T15:05:00.351Z,30.89
2018-06-07T15:07:35.006Z,30.76
2018-06-07T15:10:09.410Z,30.60
2018-06-07T15:12:43.821Z,30.57
2018-06-07T15:15:18.882Z,30.29
2018-06-07T15:17:53.314Z,30.25
2018-06-07T15:20:28.539Z,30.15
2018-06-07T15:23:03.653Z,29.96
2018-06-07T15:25:38.793Z,29.98
2018-06-07T15:28:14.111Z,30.17
2018-06-07T15:30:48.931Z,30.29
2018-06-07T15:33:25.661Z,30.25
2018-06-07T15:36:01.776Z,30.23
2018-06-07T15:38:36.833Z,30.18
2018-06-07T15:41:11.958Z,30.11
2018-06-07T15:43:47.646Z,30.08
2018-06-07T15:46:23.454Z,30.21
2018-06-07T15:48:58.143Z,30.30
2018-06-07T15:51:35.993Z,30.38
2018-06-07T15:54:10.489Z,30.47
2018-06-07T15:56:45.460Z,30.52
2018-06-07T15:59:21.118Z,30.46
2018-06-07T16:01:55.708Z,30.54
2018-06-07T16:04:30.458Z,30.56
2018-06-07T16:07:04.887Z,30.54
2018-06-07T16:09:38.360Z,30.60
2018-06-07T16:12:11.730Z,30.67
2018-06-07T16:14:45.135Z,30.64
2018-06-07T16:17:18.587Z,30.47
2018-06-07T16:19:51.996Z,30.52
2018-06-07T16:22:25.458Z,30.48
2018-06-07T16:24:58.859Z,30.62
2018-06-07T16:27:32.231Z,30.74
2018-06-07T16:30:05.708Z,30.96
2018-06-07T16:32:39.071Z,30.92
2018-06-07T16:35:12.457Z,30.85
2018-06-07T16:37:45.967Z,30.96
2018-06-07T16:40:19.405Z,31.03
2018-06-07T16:42:52.887Z,31.04
2018-06-07T16:45:26.418Z,31.09
2018-06-07T16:47:59.814Z,31.08
2018-06-07T16:50:33.210Z,31.12
2018-06-07T16:53:06.611Z,31.47
2018-06-07T16:55:40.014Z,31.98
2018-06-07T16:58:13.398Z,32.18
2018-06-07T17:00:46.871Z,32.00
2018-06-07T17:03:20.256Z,31.74
2018-06-07T17:05:53.739Z,31.62
2018-06-07T17:08:27.259Z,31.47
2018-06-07T17:11:00.665Z,31.41
2018-06-07T17:13:34.695Z,31.45
2018-06-07T17:16:08.614Z,31.55
2018-06-07T17:18:42.279Z,31.81
2018-06-07T17:21:15.909Z,31.70
2018-06-07T17:23:49.417Z,31.55
2018-06-07T17:26:22.893Z,31.34
2018-06-07T17:28:57.020Z,31.25
2018-06-07T17:31:31.133Z,31.23
2018-06-07T17:34:04.562Z,31.19
2018-06-07T17:36:38.927Z,31.15
2018-06-07T17:39:12.372Z,31.10
2018-06-07T17:41:45.757Z,31.02
2018-06-07T17:44:19.526Z,30.94
2018-06-07T17:46:53.146Z,30.87
2018-06-07T17:49:26.888Z,30.84
2018-06-07T17:52:00.654Z,30.82
2018-06-07T17:54:34.063Z,30.77
2018-06-07T17:57:07.693Z,30.72
2018-06-07T17:59:41.083Z,30.66
2018-06-07T18:02:14.473Z,30.57
2018-06-07T18:04:47.839Z,30.49
2018-06-07T18:07:21.282Z,30.39
2018-06-07T18:09:54.689Z,30.27
2018-06-07T18:12:28.114Z,30.18
2018-06-07T18:15:01.513Z,30.11
2018-06-07T18:17:34.896Z,30.05
2018-06-07T18:20:08.251Z,30.01
2018-06-07T18:22:41.681Z,29.96
2018-06-07T18:25:15.051Z,29.94
2018-06-07T18:27:48.455Z,29.88
2018-06-07T18:30:21.821Z,29.84
2018-06-07T18:32:55.266Z,29.79
2018-06-07T18:35:28.792Z,29.72
2018-06-07T18:38:02.434Z,29.65
2018-06-07T18:40:36.165Z,29.57
2018-06-07T18:43:09.660Z,29.49
2018-06-07T18:45:43.400Z,29.44
2018-06-07T18:48:16.809Z,29.36
2018-06-07T18:50:50.669Z,29.25
2018-06-07T18:53:24.154Z,29.14
2018-06-07T18:55:57.656Z,29.06
2018-06-07T18:58:31.046Z,28.96
2018-06-07T19:01:04.424Z,28.89
2018-06-07T19:03:37.816Z,28.83
2018-06-07T19:06:11.624Z,28.77
2018-06-07T19:08:50.421Z,28.69
2018-06-07T19:11:23.891Z,28.61
2018-06-07T19:14:02.859Z,28.54
2018-06-07T19:16:36.254Z,28.50
2018-06-07T19:19:15.012Z,28.46
2018-06-07T19:21:48.508Z,28.34
2018-06-07T19:24:22.241Z,28.24
2018-06-07T19:27:01.516Z,28.15
2018-06-07T19:29:35.252Z,28.06
2018-06-07T19:32:14.332Z,27.96
2018-06-07T19:34:53.206Z,27.88
2018-06-07T19:37:27.696Z,27.78
2018-06-07T19:40:06.405Z,27.70
2018-06-07T19:42:39.843Z,27.56
2018-06-07T19:45:13.234Z,27.46
2018-06-07T19:47:46.769Z,27.33
2018-06-07T19:50:20.667Z,27.24
2018-06-07T19:52:54.583Z,27.17
2018-06-07T19:55:28.518Z,27.04
2018-06-07T19:58:02.574Z,26.88
2018-06-07T20:00:36.768Z,26.76
2018-06-07T20:03:10.240Z,26.67
2018-06-07T20:05:43.735Z,26.58
2018-06-07T20:08:17.430Z,26.48
2018-06-07T20:10:50.787Z,26.39
2018-06-07T20:13:24.644Z,26.30
2018-06-07T20:15:58.453Z,26.17
2018-06-07T20:18:31.851Z,26.08
2018-06-07T20:21:05.846Z,25.94
2018-06-07T20:23:39.682Z,25.83
2018-06-07T20:26:13.069Z,25.65
2018-06-07T20:28:46.460Z,25.60
2018-06-07T20:31:19.834Z,25.50
2018-06-07T20:33:53.763Z,25.42
2018-06-07T20:36:27.753Z,25.37
2018-06-07T20:39:01.317Z,25.29
2018-06-07T20:41:34.690Z,25.20
2018-06-07T20:44:08.818Z,25.14
2018-06-07T20:46:42.315Z,25.09
2018-06-07T20:49:16.385Z,25.02
2018-06-07T20:51:49.772Z,24.94
2018-06-07T20:54:23.160Z,24.86
2018-06-07T20:56:56.527Z,24.79
2018-06-07T20:59:29.964Z,24.71
2018-06-07T21:02:03.335Z,24.65
2018-06-07T21:04:36.775Z,24.59
2018-06-07T21:07:10.166Z,24.51
2018-06-07T21:09:43.565Z,24.42
2018-06-07T21:12:16.931Z,24.35
2018-06-07T21:14:50.353Z,24.29
2018-06-07T21:17:23.761Z,24.25
2018-06-07T21:19:57.251Z,24.20
2018-06-07T21:22:30.631Z,24.16
2018-06-07T21:25:04.076Z,24.13
2018-06-07T21:27:37.466Z,24.07
2018-06-07T21:30:10.876Z,24.04
2018-06-07T21:32:44.260Z,23.99
2018-06-07T21:35:17.707Z,23.94
2018-06-07T21:37:51.084Z,23.87
2018-06-07T21:40:24.525Z,23.85
2018-06-07T21:42:57.907Z,23.80
2018-06-07T21:45:31.308Z,23.75
2018-06-07T21:48:04.790Z,23.69
2018-06-07T21:50:38.221Z,23.60
2018-06-07T21:53:11.603Z,23.53
2018-06-07T21:55:45.009Z,23.44
2018-06-07T21:58:18.402Z,23.38
2018-06-07T22:00:51.826Z,23.28
2018-06-07T22:03:25.219Z,23.22
2018-06-07T22:06:05.283Z,23.16
2018-06-07T22:08:38.683Z,23.10
2018-06-07T22:11:12.058Z,23.02
2018-06-07T22:13:45.509Z,22.97
2018-06-07T22:16:18.912Z,22.91
2018-06-07T22:18:52.346Z,22.80
2018-06-07T22:21:26.093Z,22.75
2018-06-07T22:23:59.476Z,22.66
2018-06-07T22:26:32.853Z,22.58
2018-06-07T22:29:06.248Z,22.51
2018-06-07T22:31:39.684Z,22.43
2018-06-07T22:34:13.066Z,22.38
2018-06-07T22:36:46.434Z,22.35
2018-06-07T22:39:19.840Z,22.32
2018-06-07T22:41:53.234Z,22.35
2018-06-07T22:44:26.621Z,22.30
2018-06-07T22:47:00.000Z,22.25
2018-06-07T22:49:33.419Z,22.11
2018-06-07T22:52:06.804Z,22.07
2018-06-07T22:54:40.314Z,22.01
2018-06-07T22:57:13.693Z,22.04
2018-06-07T22:59:47.087Z,21.98
2018-06-07T23:02:20.459Z,21.91
2018-06-07T23:04:53.924Z,21.86
2018-06-07T23:07:27.302Z,21.80
2018-06-07T23:10:00.705Z,21.76
2018-06-07T23:12:34.101Z,21.73
2018-06-07T23:15:07.565Z,21.69
2018-06-07T23:17:40.940Z,21.66
2018-06-07T23:20:14.321Z,21.62
2018-06-07T23:22:47.690Z,21.57
2018-06-07T23:25:21.075Z,21.53
2018-06-07T23:27:54.491Z,21.47
2018-06-07T23:30:27.886Z,21.43
2018-06-07T23:33:01.366Z,21.37
2018-06-07T23:35:34.804Z,21.30
2018-06-07T23:38:08.171Z,21.27
2018-06-07T23:40:41.569Z,21.23
2018-06-07T23:43:14.952Z,21.19
2018-06-07T23:45:48.342Z,21.15
2018-06-07T23:48:21.717Z,21.09
2018-06-07T23:50:55.129Z,21.06
2018-06-07T23:53:28.512Z,21.03
2018-06-07T23:56:01.915Z,20.98
2018-06-07T23:58:35.306Z,20.92
